createdAt,value
2023-05-22T00:01:56.815Z,100955.38
2023-05-22T00:04:30.096Z,100953.33
2023-05-22T00:06:58.071Z,100953.33
2023-05-22T00:09:26.340Z,100948.70
2023-05-22T00:11:54.194Z,100949.38
2023-05-22T00:14:21.944Z,100949.71
2023-05-22T00:16:50.402Z,100945.27
2023-05-22T00:19:19.012Z,100946.94
2023-05-22T00:21:46.982Z,100943.16
2023-05-22T00:24:14.908Z,100938.70
2023-05-22T00:26:42.646Z,100941.91
2023-05-22T00:29:11.012Z,100940.35
2023-05-22T00:31:38.697Z,100940.84
2023-05-22T00:34:06.490Z,100942.18
2023-05-22T00:36:34.349Z,100940.63
2023-05-22T00:39:02.132Z,100940.27
2023-05-22T00:41:34.009Z,100940.92
2023-05-22T00:44:02.783Z,100942.43
2023-05-22T00:46:31.383Z,100942.58
2023-05-22T00:48:59.191Z,100939.33
2023-05-22T00:51:26.995Z,100936.92
2023-05-22T00:53:54.814Z,100933.52
2023-05-22T00:56:22.761Z,100934.35
2023-05-22T00:58:50.883Z,100936.89
2023-05-22T01:01:18.988Z,100938.23
2023-05-22T01:03:47.161Z,100938.56
2023-05-22T01:06:18.328Z,100939.59
2023-05-22T01:08:46.172Z,100939.63
2023-05-22T01:11:22.385Z,100939.75
2023-05-22T01:14:10.842Z,100935.64
2023-05-22T01:16:42.000Z,100936.98
2023-05-22T01:19:47.688Z,100937.48
2023-05-22T01:22:51.149Z,100938.32
2023-05-22T01:25:36.072Z,100936.92
2023-05-22T01:28:21.954Z,100935.88
2023-05-22T01:30:58.618Z,100932.42
2023-05-22T01:33:28.933Z,100933.59
2023-05-22T01:36:00.274Z,100935.96
2023-05-22T01:38:29.196Z,100932.54
2023-05-22T01:40:58.350Z,100931.86
2023-05-22T01:43:26.029Z,100928.43
2023-05-22T01:45:53.986Z,100927.91
2023-05-22T01:48:21.671Z,100928.91
2023-05-22T01:50:52.267Z,100930.92
2023-05-22T01:53:28.742Z,100934.48
2023-05-22T01:56:21.108Z,100935.97
2023-05-22T01:58:56.492Z,100934.90
2023-05-22T02:01:28.999Z,100939.13
2023-05-22T02:03:58.179Z,100944.04
2023-05-22T02:06:28.873Z,100942.98
2023-05-22T02:08:57.578Z,100942.80
2023-05-22T02:11:28.551Z,100945.33
2023-05-22T02:13:57.475Z,100942.41
2023-05-22T02:16:25.484Z,100939.81
2023-05-22T02:19:05.928Z,100938.58
2023-05-22T02:21:34.922Z,100941.13
2023-05-22T02:24:03.480Z,100938.02
2023-05-22T02:26:31.299Z,100936.45
2023-05-22T02:28:59.121Z,100935.23
2023-05-22T02:31:27.064Z,100937.94
2023-05-22T02:33:54.951Z,100935.33
2023-05-22T02:36:23.066Z,100935.62
2023-05-22T02:38:50.902Z,100933.37
2023-05-22T02:41:18.766Z,100930.11
2023-05-22T02:43:46.458Z,100932.81
2023-05-22T02:46:14.375Z,100927.67
2023-05-22T02:48:42.122Z,100924.95
2023-05-22T02:51:09.909Z,100923.56
2023-05-22T02:53:40.232Z,100922.53
2023-05-22T02:56:10.710Z,100921.67
2023-05-22T02:58:39.145Z,100920.80
2023-05-22T03:01:06.845Z,100919.58
2023-05-22T03:03:34.964Z,100918.39
2023-05-22T03:06:04.265Z,100914.30
2023-05-22T03:08:32.328Z,100910.21
2023-05-22T03:11:00.643Z,100908.86
2023-05-22T03:13:28.402Z,100904.79
2023-05-22T03:15:56.144Z,100902.75
2023-05-22T03:18:25.961Z,100899.88
2023-05-22T03:20:55.062Z,100900.73
2023-05-22T03:23:22.788Z,100900.44
2023-05-22T03:25:51.332Z,100900.29
2023-05-22T03:28:19.053Z,100900.52
2023-05-22T03:30:47.579Z,100898.52
2023-05-22T03:33:15.457Z,100896.33
2023-05-22T03:35:44.691Z,100897.39
2023-05-22T03:38:12.414Z,100899.14
2023-05-22T03:40:40.276Z,100891.38
2023-05-22T03:43:08.196Z,100896.19
2023-05-22T03:45:35.934Z,100896.07
2023-05-22T03:48:03.967Z,100892.89
2023-05-22T03:50:31.778Z,100892.42
2023-05-22T03:52:59.482Z,100896.57
2023-05-22T03:55:27.225Z,100898.31
2023-05-22T03:57:55.005Z,100901.45
2023-05-22T04:00:22.872Z,100903.55
2023-05-22T04:02:51.389Z,100907.02
2023-05-22T04:05:19.286Z,100906.91
2023-05-22T04:07:47.045Z,100909.03
2023-05-22T04:10:14.726Z,100905.71
2023-05-22T04:12:42.480Z,100902.89
2023-05-22T04:15:10.255Z,100900.05
2023-05-22T04:17:40.950Z,100899.42
2023-05-22T04:20:09.734Z,100897.08
2023-05-22T04:22:38.635Z,100898.32
2023-05-22T04:25:06.784Z,100899.73
2023-05-22T04:27:35.721Z,100899.98
2023-05-22T04:30:04.067Z,100893.52
2023-05-22T04:32:31.815Z,100889.48
2023-05-22T04:35:00.837Z,100890.20
2023-05-22T04:37:32.009Z,100884.27
2023-05-22T04:40:06.081Z,100881.92
2023-05-22T04:42:37.458Z,100887.07
2023-05-22T04:45:05.861Z,100884.20
2023-05-22T04:47:33.598Z,100882.34
2023-05-22T04:50:02.565Z,100887.82
2023-05-22T04:52:30.407Z,100884.61
2023-05-22T04:55:00.687Z,100886.01
2023-05-22T04:57:29.840Z,100882.40
2023-05-22T04:59:58.243Z,100880.19
2023-05-22T05:02:26.065Z,100885.31
2023-05-22T05:04:54.077Z,100888.37
2023-05-22T05:07:21.795Z,100890.23
2023-05-22T05:09:49.711Z,100889.52
2023-05-22T05:12:17.635Z,100891.02
2023-05-22T05:14:45.634Z,100889.61
2023-05-22T05:17:13.915Z,100895.04
2023-05-22T05:19:41.726Z,100892.94
2023-05-22T05:22:09.523Z,100895.99
2023-05-22T05:24:37.324Z,100900.05
2023-05-22T05:27:05.298Z,100899.65
2023-05-22T05:29:33.100Z,100897.89
2023-05-22T05:32:00.912Z,100900.91
2023-05-22T05:34:28.664Z,100901.89
2023-05-22T05:36:58.052Z,100899.80
2023-05-22T05:39:25.867Z,100901.30
2023-05-22T05:41:53.587Z,100902.81
2023-05-22T05:44:21.669Z,100899.20
2023-05-22T05:46:49.485Z,100901.58
2023-05-22T05:49:17.209Z,100898.09
2023-05-22T05:51:44.940Z,100897.88
2023-05-22T05:54:12.789Z,100895.39
2023-05-22T05:56:40.784Z,100892.36
2023-05-22T05:59:09.860Z,100893.78
2023-05-22T06:01:39.470Z,100893.68
2023-05-22T06:04:09.099Z,100894.05
2023-05-22T06:06:36.860Z,100893.55
2023-05-22T06:09:07.993Z,100890.10
2023-05-22T06:11:36.666Z,100888.18
2023-05-22T06:14:07.425Z,100889.01
2023-05-22T06:16:35.244Z,100889.30
2023-05-22T06:19:04.642Z,100887.86
2023-05-22T06:21:32.471Z,100886.38
2023-05-22T06:24:00.296Z,100885.82
2023-05-22T06:26:28.191Z,100885.23
2023-05-22T06:28:55.991Z,100887.40
2023-05-22T06:31:24.634Z,100885.83
2023-05-22T06:33:52.596Z,100886.06
2023-05-22T06:36:20.518Z,100879.56
2023-05-22T06:38:49.751Z,100881.05
2023-05-22T06:41:17.637Z,100883.05
2023-05-22T06:43:45.426Z,100880.41
2023-05-22T06:46:13.508Z,100882.95
2023-05-22T06:48:42.007Z,100881.35
2023-05-22T06:51:11.669Z,100880.69
2023-05-22T06:53:39.677Z,100874.54
2023-05-22T06:56:07.540Z,100876.11
2023-05-22T06:58:35.295Z,100871.73
2023-05-22T07:01:03.246Z,100867.73
2023-05-22T07:03:31.069Z,100866.02
2023-05-22T07:05:59.762Z,100867.90
2023-05-22T07:08:30.337Z,100870.49
2023-05-22T07:10:58.434Z,100870.60
2023-05-22T07:13:26.141Z,100865.79
2023-05-22T07:15:54.409Z,100867.02
2023-05-22T07:18:22.233Z,100868.40
2023-05-22T07:20:50.037Z,100865.86
2023-05-22T07:23:17.769Z,100868.50
2023-05-22T07:25:45.519Z,100866.15
2023-05-22T07:28:13.242Z,100869.24
2023-05-22T07:30:41.607Z,100867.86
2023-05-22T07:33:09.526Z,100869.05
2023-05-22T07:35:37.767Z,100863.67
2023-05-22T07:38:05.555Z,100861.36
2023-05-22T07:40:33.246Z,100864.05
2023-05-22T07:43:01.006Z,100863.48
2023-05-22T07:45:28.739Z,100866.11
2023-05-22T07:47:59.106Z,100863.95
2023-05-22T07:50:27.092Z,100863.33
2023-05-22T07:52:54.813Z,100862.59
2023-05-22T07:55:22.774Z,100865.98
2023-05-22T07:57:51.476Z,100866.64
2023-05-22T08:00:19.949Z,100865.53
2023-05-22T08:02:47.980Z,100868.80
2023-05-22T08:05:16.032Z,100867.25
2023-05-22T08:07:43.891Z,100870.26
2023-05-22T08:10:15.999Z,100870.08
2023-05-22T08:12:43.762Z,100872.47
2023-05-22T08:15:12.068Z,100862.76
2023-05-22T08:17:40.143Z,100865.84
2023-05-22T08:20:09.534Z,100857.81
2023-05-22T08:22:39.245Z,100858.04
2023-05-22T08:25:07.211Z,100860.00
2023-05-22T08:27:35.144Z,100854.90
2023-05-22T08:30:04.763Z,100856.98
2023-05-22T08:32:32.674Z,100851.77
2023-05-22T08:35:01.661Z,100857.77
2023-05-22T08:37:29.467Z,100858.78
2023-05-22T08:39:57.142Z,100854.95
2023-05-22T08:42:25.273Z,100855.14
2023-05-22T08:44:55.468Z,100854.29
2023-05-22T08:47:26.090Z,100859.18
2023-05-22T08:49:54.987Z,100853.28
2023-05-22T08:52:26.403Z,100847.80
2023-05-22T08:54:56.093Z,100847.96
2023-05-22T08:57:25.000Z,100848.48
2023-05-22T08:59:53.156Z,100845.98
2023-05-22T09:02:21.904Z,100842.48
2023-05-22T09:04:49.802Z,100840.23
2023-05-22T09:07:17.514Z,100837.48
2023-05-22T09:09:45.202Z,100841.27
2023-05-22T09:12:13.874Z,100838.46
2023-05-22T09:14:43.068Z,100836.96
2023-05-22T09:17:15.700Z,100837.02
2023-05-22T09:19:47.317Z,100832.00
2023-05-22T09:22:15.148Z,100828.92
2023-05-22T09:24:47.194Z,100824.78
2023-05-22T09:27:14.920Z,100820.23
2023-05-22T09:29:51.049Z,100814.98
2023-05-22T09:32:20.113Z,100817.14
2023-05-22T09:34:47.969Z,100816.56
2023-05-22T09:37:16.763Z,100820.23
2023-05-22T09:39:46.556Z,100815.04
2023-05-22T09:42:18.110Z,100816.35
2023-05-22T09:44:49.859Z,100815.42
2023-05-22T09:47:17.898Z,100813.88
2023-05-22T09:49:46.383Z,100811.34
2023-05-22T09:52:15.759Z,100815.41
2023-05-22T09:54:54.003Z,100811.61
2023-05-22T09:57:24.104Z,100810.60
2023-05-22T09:59:54.998Z,100805.29
2023-05-22T10:02:24.321Z,100806.21
2023-05-22T10:04:53.522Z,100804.39
2023-05-22T10:07:37.582Z,100804.19
2023-05-22T10:10:11.453Z,100804.73
2023-05-22T10:12:44.614Z,100806.31
2023-05-22T10:15:13.019Z,100802.68
2023-05-22T10:17:42.142Z,100798.84
2023-05-22T10:20:11.740Z,100798.67
2023-05-22T10:22:39.510Z,100795.79
2023-05-22T10:25:10.443Z,100792.73
2023-05-22T10:27:40.535Z,100790.99
2023-05-22T10:30:20.347Z,100789.35
2023-05-22T10:32:55.167Z,100787.25
2023-05-22T10:35:52.916Z,100786.02
2023-05-22T10:38:44.198Z,100792.19
2023-05-22T10:41:12.668Z,100787.23
2023-05-22T10:43:48.343Z,100783.71
2023-05-22T10:46:16.643Z,100787.51
2023-05-22T10:48:46.802Z,100783.96
2023-05-22T10:51:18.189Z,100779.88
2023-05-22T10:53:53.234Z,100778.60
2023-05-22T10:56:24.434Z,100776.05
2023-05-22T10:58:58.062Z,100773.40
2023-05-22T11:01:26.736Z,100772.20
2023-05-22T11:03:55.983Z,100772.35
2023-05-22T11:06:31.798Z,100774.06
2023-05-22T11:09:00.010Z,100773.73
2023-05-22T11:11:28.183Z,100770.76
2023-05-22T11:14:03.506Z,100770.71
2023-05-22T11:16:38.076Z,100770.60
2023-05-22T11:19:22.658Z,100768.02
2023-05-22T11:21:51.529Z,100759.88
2023-05-22T11:24:19.550Z,100757.40
2023-05-22T11:27:02.769Z,100755.88
2023-05-22T11:29:31.146Z,100750.82
2023-05-22T11:31:59.927Z,100751.73
2023-05-22T11:34:28.083Z,100748.75
2023-05-22T11:37:00.011Z,100746.58
2023-05-22T11:39:28.198Z,100741.64
2023-05-22T11:41:56.190Z,100741.07
2023-05-22T11:44:24.053Z,100735.60
2023-05-22T11:46:52.640Z,100734.43
2023-05-22T11:49:24.100Z,100729.57
2023-05-22T11:51:51.963Z,100729.80
2023-05-22T11:54:19.899Z,100733.56
2023-05-22T11:56:48.376Z,100728.39
2023-05-22T11:59:16.598Z,100722.35
2023-05-22T12:01:44.436Z,100720.02
2023-05-22T12:04:12.397Z,100718.98
2023-05-22T12:06:40.313Z,100721.02
2023-05-22T12:09:09.123Z,100722.16
2023-05-22T12:11:37.529Z,100717.89
2023-05-22T12:14:05.779Z,100715.24
2023-05-22T12:16:36.868Z,100714.63
2023-05-22T12:19:09.560Z,100714.67
2023-05-22T12:21:42.277Z,100710.51
2023-05-22T12:24:10.729Z,100710.55
2023-05-22T12:26:38.423Z,100700.14
2023-05-22T12:29:06.397Z,100697.31
2023-05-22T12:31:39.003Z,100692.66
2023-05-22T12:34:08.597Z,100690.23
2023-05-22T12:36:42.246Z,100689.09
2023-05-22T12:39:11.996Z,100688.98
2023-05-22T12:41:40.163Z,100693.80
2023-05-22T12:44:08.284Z,100696.06
2023-05-22T12:46:36.427Z,100693.75
2023-05-22T12:49:04.296Z,100689.77
2023-05-22T12:51:32.934Z,100686.48
2023-05-22T12:54:02.101Z,100684.91
2023-05-22T12:56:30.825Z,100678.30
2023-05-22T12:58:58.955Z,100679.41
2023-05-22T13:01:27.176Z,100682.82
2023-05-22T13:03:54.975Z,100684.02
2023-05-22T13:06:22.729Z,100680.73
2023-05-22T13:08:51.147Z,100680.73
2023-05-22T13:11:20.157Z,100680.33
2023-05-22T13:13:47.888Z,100676.17
2023-05-22T13:16:15.620Z,100681.86
2023-05-22T13:18:44.186Z,100678.80
2023-05-22T13:21:13.603Z,100679.91
2023-05-22T13:23:42.296Z,100672.89
2023-05-22T13:26:10.060Z,100671.61
2023-05-22T13:28:37.806Z,100671.41
2023-05-22T13:31:05.637Z,100671.33
2023-05-22T13:33:33.384Z,100668.49
2023-05-22T13:36:01.190Z,100666.45
2023-05-22T13:38:28.946Z,100668.33
2023-05-22T13:40:56.671Z,100666.84
2023-05-22T13:43:24.374Z,100664.96
2023-05-22T13:45:52.151Z,100660.80
2023-05-22T13:48:20.185Z,100657.64
2023-05-22T13:50:47.924Z,100653.88
2023-05-22T13:53:20.982Z,100647.30
2023-05-22T13:55:48.894Z,100649.42
2023-05-22T13:58:16.740Z,100647.91
2023-05-22T14:00:44.678Z,100651.81
2023-05-22T14:03:17.501Z,100651.98
2023-05-22T14:05:45.785Z,100650.11
2023-05-22T14:08:13.616Z,100649.05
2023-05-22T14:10:42.271Z,100646.66
2023-05-22T14:13:10.050Z,100644.58
2023-05-22T14:15:38.067Z,100643.83
2023-05-22T14:18:06.039Z,100640.63
2023-05-22T14:20:34.238Z,100637.73
2023-05-22T14:23:02.019Z,100631.08
2023-05-22T14:25:29.857Z,100631.73
2023-05-22T14:27:57.886Z,100629.99
2023-05-22T14:30:25.855Z,100626.44
2023-05-22T14:32:53.649Z,100626.38
2023-05-22T14:35:21.570Z,100625.63
2023-05-22T14:37:49.539Z,100624.24
2023-05-22T14:40:17.390Z,100622.39
2023-05-22T14:42:45.801Z,100617.74
2023-05-22T14:45:13.632Z,100619.15
2023-05-22T14:47:43.104Z,100619.71
2023-05-22T14:50:19.008Z,100613.38
2023-05-22T14:52:49.426Z,100613.98
2023-05-22T14:55:17.762Z,100610.98
2023-05-22T14:57:45.982Z,100611.48
2023-05-22T15:00:15.279Z,100610.65
2023-05-22T15:02:43.220Z,100609.52
2023-05-22T15:05:11.736Z,100613.16
2023-05-22T15:07:44.459Z,100611.86
2023-05-22T15:10:13.234Z,100612.51
2023-05-22T15:12:41.223Z,100614.61
2023-05-22T15:15:09.178Z,100613.09
2023-05-22T15:17:36.889Z,100613.70
2023-05-22T15:20:05.675Z,100606.34
2023-05-22T15:22:33.401Z,100603.34
2023-05-22T15:25:09.694Z,100601.85
2023-05-22T15:27:39.057Z,100597.29
2023-05-22T15:30:09.809Z,100601.11
2023-05-22T15:32:38.066Z,100599.41
2023-05-22T15:35:07.148Z,100598.33
2023-05-22T15:37:36.540Z,100594.71
2023-05-22T15:40:06.065Z,100591.95
2023-05-22T15:42:33.775Z,100591.98
2023-05-22T15:45:01.940Z,100592.02
2023-05-22T15:47:29.974Z,100587.21
2023-05-22T15:49:57.819Z,100582.76
2023-05-22T15:52:25.718Z,100571.70
2023-05-22T15:54:54.969Z,100574.80
2023-05-22T15:57:23.984Z,100575.46
2023-05-22T15:59:51.951Z,100566.83
2023-05-22T16:02:19.739Z,100563.27
2023-05-22T16:04:49.238Z,100563.88
2023-05-22T16:07:18.995Z,100564.16
2023-05-22T16:09:47.507Z,100565.92
2023-05-22T16:12:15.494Z,100566.00
2023-05-22T16:14:43.336Z,100563.77
2023-05-22T16:17:11.255Z,100562.29
2023-05-22T16:19:39.006Z,100560.77
2023-05-22T16:22:06.826Z,100561.05
2023-05-22T16:24:34.555Z,100557.94
2023-05-22T16:27:02.492Z,100557.40
2023-05-22T16:29:32.312Z,100550.54
2023-05-22T16:32:00.197Z,100554.90
2023-05-22T16:34:29.719Z,100560.39
2023-05-22T16:36:57.477Z,100560.89
2023-05-22T16:39:27.071Z,100556.77
2023-05-22T16:41:54.901Z,100553.74
2023-05-22T16:44:22.644Z,100557.17
2023-05-22T16:46:50.633Z,100559.25
2023-05-22T16:49:18.394Z,100558.05
2023-05-22T16:51:46.159Z,100556.46
2023-05-22T16:54:13.912Z,100560.80
2023-05-22T16:56:42.694Z,100558.64
2023-05-22T16:59:10.567Z,100560.42
2023-05-22T17:01:38.420Z,100562.17
2023-05-22T17:04:06.264Z,100559.88
2023-05-22T17:06:35.552Z,100560.19
2023-05-22T17:09:03.575Z,100565.36
2023-05-22T17:11:31.317Z,100565.90
2023-05-22T17:13:59.184Z,100570.16
2023-05-22T17:16:26.949Z,100565.90
2023-05-22T17:18:55.182Z,100570.95
2023-05-22T17:21:24.350Z,100570.41
2023-05-22T17:23:52.289Z,100567.70
2023-05-22T17:26:20.198Z,100568.86
2023-05-22T17:28:47.879Z,100572.42
2023-05-22T17:31:16.493Z,100570.42
2023-05-22T17:33:44.352Z,100570.98
2023-05-22T17:36:12.347Z,100569.66
2023-05-22T17:38:40.213Z,100567.17
2023-05-22T17:41:08.499Z,100564.42
2023-05-22T17:43:38.298Z,100562.90
2023-05-22T17:46:06.574Z,100565.92
2023-05-22T17:48:34.720Z,100559.42
2023-05-22T17:51:03.629Z,100566.00
2023-05-22T17:53:34.905Z,100564.15
2023-05-22T17:56:04.695Z,100563.52
2023-05-22T17:58:32.875Z,100560.49
2023-05-22T18:01:00.668Z,100555.09
2023-05-22T18:03:28.818Z,100554.02
2023-05-22T18:05:56.986Z,100550.36
2023-05-22T18:08:25.025Z,100550.43
2023-05-22T18:10:52.739Z,100549.15
2023-05-22T18:13:20.502Z,100549.95
2023-05-22T18:15:50.136Z,100553.02
2023-05-22T18:18:18.164Z,100554.52
2023-05-22T18:20:46.404Z,100553.40
2023-05-22T18:23:14.314Z,100553.20
2023-05-22T18:25:42.175Z,100551.17
2023-05-22T18:28:10.165Z,100548.32
2023-05-22T18:30:38.112Z,100548.55
2023-05-22T18:33:06.184Z,100551.17
2023-05-22T18:35:34.008Z,100549.48
2023-05-22T18:38:01.996Z,100553.30
2023-05-22T18:40:29.709Z,100555.91
2023-05-22T18:42:57.422Z,100553.33
2023-05-22T18:45:25.118Z,100551.98
2023-05-22T18:47:53.587Z,100555.23
2023-05-22T18:50:23.409Z,100556.03
2023-05-22T18:52:51.575Z,100554.95
2023-05-22T18:55:19.415Z,100556.11
2023-05-22T18:57:47.156Z,100558.79
2023-05-22T19:00:14.967Z,100559.91
2023-05-22T19:02:42.759Z,100560.20
2023-05-22T19:05:10.852Z,100560.73
2023-05-22T19:07:38.842Z,100559.84
2023-05-22T19:10:08.303Z,100561.48
2023-05-22T19:12:36.170Z,100560.16
2023-05-22T19:15:05.477Z,100560.34
2023-05-22T19:17:33.380Z,100562.80
2023-05-22T19:20:03.476Z,100567.65
2023-05-22T19:22:32.009Z,100563.89
2023-05-22T19:24:59.851Z,100565.28
2023-05-22T19:27:27.678Z,100567.38
2023-05-22T19:29:56.723Z,100567.52
2023-05-22T19:32:24.421Z,100566.27
2023-05-22T19:34:52.137Z,100560.95
2023-05-22T19:37:19.849Z,100560.58
2023-05-22T19:39:47.648Z,100559.00
2023-05-22T19:42:15.395Z,100562.63
2023-05-22T19:44:43.156Z,100562.08
2023-05-22T19:47:11.067Z,100564.24
2023-05-22T19:49:38.765Z,100566.42
2023-05-22T19:52:06.816Z,100563.11
2023-05-22T19:54:35.804Z,100561.69
2023-05-22T19:57:03.639Z,100560.76
2023-05-22T19:59:31.384Z,100565.48
2023-05-22T20:01:59.478Z,100558.88
2023-05-22T20:04:27.428Z,100555.21
2023-05-22T20:06:55.380Z,100557.35
2023-05-22T20:09:23.105Z,100556.06
2023-05-22T20:11:50.907Z,100554.09
2023-05-22T20:14:20.943Z,100550.90
2023-05-22T20:16:49.005Z,100552.65
2023-05-22T20:19:17.672Z,100546.22
2023-05-22T20:21:49.017Z,100547.48
2023-05-22T20:24:21.127Z,100542.23
2023-05-22T20:26:49.085Z,100540.77
2023-05-22T20:29:17.687Z,100544.95
2023-05-22T20:31:46.095Z,100543.30
2023-05-22T20:34:14.074Z,100543.18
2023-05-22T20:36:42.743Z,100539.30
2023-05-22T20:39:12.318Z,100535.92
2023-05-22T20:41:40.057Z,100539.08
2023-05-22T20:44:08.178Z,100538.28
2023-05-22T20:46:35.941Z,100535.45
2023-05-22T20:49:05.108Z,100538.60
2023-05-22T20:51:33.637Z,100537.10
2023-05-22T20:54:01.532Z,100537.66
2023-05-22T20:56:30.187Z,100541.48
2023-05-22T20:58:58.012Z,100539.13
2023-05-22T21:01:25.820Z,100538.64
2023-05-22T21:03:56.564Z,100543.83
2023-05-22T21:06:24.534Z,100541.64
2023-05-22T21:08:54.291Z,100536.20
2023-05-22T21:11:22.221Z,100532.80
2023-05-22T21:13:49.966Z,100531.82
2023-05-22T21:16:17.671Z,100529.48
2023-05-22T21:18:45.852Z,100530.38
2023-05-22T21:21:20.428Z,100528.38
2023-05-22T21:23:49.285Z,100527.55
2023-05-22T21:26:17.117Z,100526.56
2023-05-22T21:28:45.053Z,100532.42
2023-05-22T21:31:12.848Z,100533.32
2023-05-22T21:33:42.728Z,100535.74
2023-05-22T21:36:10.477Z,100536.09
2023-05-22T21:38:38.357Z,100536.63
2023-05-22T21:41:06.227Z,100537.17
2023-05-22T21:43:34.037Z,100535.18
2023-05-22T21:46:01.817Z,100532.80
2023-05-22T21:48:29.626Z,100531.63
2023-05-22T21:50:58.144Z,100527.88
2023-05-22T21:53:26.133Z,100527.20
2023-05-22T21:55:53.924Z,100529.28
2023-05-22T21:58:21.889Z,100529.98
2023-05-22T22:00:49.615Z,100529.31
2023-05-22T22:03:18.292Z,100534.80
2023-05-22T22:05:46.360Z,100535.02
2023-05-22T22:08:14.099Z,100535.73
2023-05-22T22:10:42.237Z,100535.76
2023-05-22T22:13:10.273Z,100536.30
2023-05-22T22:15:37.999Z,100535.65
2023-05-22T22:18:05.886Z,100533.98
2023-05-22T22:20:44.454Z,100534.00
2023-05-22T22:23:13.218Z,100531.63
2023-05-22T22:25:40.969Z,100528.38
2023-05-22T22:28:08.705Z,100529.42
2023-05-22T22:30:36.445Z,100525.52
2023-05-22T22:33:04.301Z,100522.96
2023-05-22T22:35:32.133Z,100526.23
2023-05-22T22:37:59.861Z,100528.97
2023-05-22T22:40:27.948Z,100530.00
2023-05-22T22:42:55.665Z,100529.15
2023-05-22T22:45:23.467Z,100527.80
2023-05-22T22:47:53.203Z,100523.03
2023-05-22T22:50:21.447Z,100522.02
2023-05-22T22:52:49.447Z,100519.82
2023-05-22T22:55:17.490Z,100515.89
2023-05-22T22:57:50.022Z,100514.02
2023-05-22T23:00:19.276Z,100510.27
2023-05-22T23:02:47.361Z,100505.02
2023-05-22T23:05:20.034Z,100503.48
2023-05-22T23:07:48.807Z,100506.55
2023-05-22T23:10:16.617Z,100501.10
2023-05-22T23:12:44.367Z,100496.48
2023-05-22T23:15:13.759Z,100496.67
2023-05-22T23:17:42.180Z,100495.48
2023-05-22T23:20:11.270Z,100490.39
2023-05-22T23:22:39.122Z,100486.63
2023-05-22T23:25:07.411Z,100487.82
2023-05-22T23:27:36.545Z,100486.48
2023-05-22T23:30:05.467Z,100483.59
2023-05-22T23:32:33.239Z,100478.48
2023-05-22T23:35:01.009Z,100482.73
2023-05-22T23:37:28.886Z,100482.39
2023-05-22T23:39:56.564Z,100480.52
2023-05-22T23:42:24.283Z,100478.82
2023-05-22T23:44:51.981Z,100472.67
2023-05-22T23:47:20.044Z,100468.60
2023-05-22T23:49:47.727Z,100468.77
2023-05-22T23:52:15.482Z,100468.60
2023-05-22T23:54:43.206Z,100470.65
2023-05-22T23:57:11.063Z,100466.55
2023-05-22T23:59:39.231Z,100468.95
